createdAt,value
2022-09-09T00:00:51.291Z,20.57
2022-09-09T00:03:24.911Z,20.56
2022-09-09T00:06:01.168Z,20.55
2022-09-09T00:08:40.056Z,20.56
2022-09-09T00:11:10.611Z,20.49
2022-09-09T00:13:46.226Z,20.47
2022-09-09T00:16:20.105Z,20.47
2022-09-09T00:18:56.936Z,20.46
2022-09-09T00:21:33.304Z,20.46
2022-09-09T00:24:03.755Z,20.44
2022-09-09T00:26:37.680Z,20.42
2022-09-09T00:29:17.034Z,20.42
2022-09-09T00:31:44.799Z,20.43
2022-09-09T00:34:17.367Z,20.39
2022-09-09T00:36:45.897Z,20.40
2022-09-09T00:39:20.740Z,20.38
2022-09-09T00:42:05.147Z,20.41
2022-09-09T00:44:36.490Z,20.35
2022-09-09T00:47:26.950Z,20.34
2022-09-09T00:50:03.224Z,20.39
2022-09-09T00:52:41.810Z,20.26
2022-09-09T00:55:20.708Z,20.36
2022-09-09T00:57:53.875Z,20.32
2022-09-09T01:00:26.055Z,20.27
2022-09-09T01:03:25.049Z,20.38
2022-09-09T01:06:01.529Z,20.39
2022-09-09T01:08:55.013Z,20.38
2022-09-09T01:11:25.500Z,20.35
2022-09-09T01:14:00.962Z,20.40
2022-09-09T01:16:35.188Z,20.37
2022-09-09T01:19:04.921Z,20.35
2022-09-09T01:21:41.855Z,20.28
2022-09-09T01:24:29.086Z,20.30
2022-09-09T01:27:08.868Z,20.30
2022-09-09T01:29:38.028Z,20.29
2022-09-09T01:32:43.324Z,20.28
2022-09-09T01:35:16.727Z,20.23
2022-09-09T01:37:44.454Z,20.20
2022-09-09T01:40:12.304Z,20.16
2022-09-09T01:42:42.087Z,20.21
2022-09-09T01:45:11.279Z,20.17
2022-09-09T01:47:39.687Z,20.15
2022-09-09T01:50:19.484Z,20.17
2022-09-09T01:52:51.385Z,20.14
2022-09-09T01:55:30.599Z,20.17
2022-09-09T01:58:16.367Z,20.21
2022-09-09T02:00:58.862Z,20.20
2022-09-09T02:03:29.921Z,20.15
2022-09-09T02:06:16.795Z,20.06
2022-09-09T02:08:49.890Z,20.10
2022-09-09T02:11:20.603Z,20.18
2022-09-09T02:14:19.922Z,20.19
2022-09-09T02:16:53.849Z,20.10
2022-09-09T02:19:29.781Z,20.24
2022-09-09T02:22:04.522Z,20.28
2022-09-09T02:24:35.360Z,20.25
2022-09-09T02:27:15.543Z,20.30
2022-09-09T02:29:48.100Z,20.26
2022-09-09T02:32:20.324Z,20.27
2022-09-09T02:34:50.929Z,20.27
2022-09-09T02:37:22.072Z,20.24
2022-09-09T02:39:53.752Z,20.19
2022-09-09T02:42:24.191Z,20.11
2022-09-09T02:44:55.790Z,20.19
2022-09-09T02:47:32.263Z,20.19
2022-09-09T02:50:13.775Z,20.24
2022-09-09T02:52:56.771Z,20.22
2022-09-09T02:55:28.342Z,20.23
2022-09-09T02:57:59.960Z,20.16
2022-09-09T03:00:31.530Z,20.16
2022-09-09T03:03:02.468Z,20.10
2022-09-09T03:05:30.226Z,20.14
2022-09-09T03:07:58.014Z,20.11
2022-09-09T03:10:26.225Z,20.01
2022-09-09T03:12:53.988Z,20.18
2022-09-09T03:15:21.748Z,20.02
2022-09-09T03:17:51.372Z,20.17
2022-09-09T03:20:19.699Z,20.21
2022-09-09T03:22:47.471Z,20.15
2022-09-09T03:25:15.482Z,20.12
2022-09-09T03:27:43.441Z,20.09
2022-09-09T03:30:13.436Z,20.16
2022-09-09T03:32:44.924Z,20.16
2022-09-09T03:35:17.170Z,20.12
2022-09-09T03:37:45.423Z,20.16
2022-09-09T03:40:15.164Z,20.10
2022-09-09T03:42:44.220Z,20.14
2022-09-09T03:45:12.548Z,20.13
2022-09-09T03:47:42.755Z,20.11
2022-09-09T03:50:12.040Z,20.11
2022-09-09T03:52:47.022Z,20.11
2022-09-09T03:55:20.941Z,20.07
2022-09-09T03:57:48.827Z,20.12
2022-09-09T04:00:17.302Z,20.05
2022-09-09T04:02:46.731Z,20.07
2022-09-09T04:05:17.696Z,20.11
2022-09-09T04:07:49.216Z,20.04
2022-09-09T04:10:17.835Z,20.01
2022-09-09T04:12:49.356Z,19.91
2022-09-09T04:15:19.615Z,20.02
2022-09-09T04:17:48.151Z,20.07
2022-09-09T04:20:16.514Z,20.12
2022-09-09T04:22:44.247Z,20.14
2022-09-09T04:25:13.619Z,20.12
2022-09-09T04:27:41.526Z,20.14
2022-09-09T04:30:11.122Z,20.13
2022-09-09T04:32:39.116Z,19.99
2022-09-09T04:35:07.134Z,20.08
2022-09-09T04:37:35.651Z,20.11
2022-09-09T04:40:04.151Z,20.13
2022-09-09T04:42:37.044Z,20.09
2022-09-09T04:45:05.548Z,20.09
2022-09-09T04:47:33.780Z,19.94
2022-09-09T04:50:01.570Z,20.13
2022-09-09T04:52:30.175Z,20.09
2022-09-09T04:54:57.981Z,20.11
2022-09-09T04:57:25.759Z,20.11
2022-09-09T04:59:54.854Z,20.04
2022-09-09T05:02:22.815Z,20.09
2022-09-09T05:04:51.984Z,20.10
2022-09-09T05:07:19.922Z,20.07
2022-09-09T05:09:49.058Z,20.06
2022-09-09T05:12:18.370Z,20.09
2022-09-09T05:14:51.526Z,20.12
2022-09-09T05:17:20.993Z,20.07
2022-09-09T05:19:50.120Z,20.07
2022-09-09T05:22:21.161Z,20.14
2022-09-09T05:24:51.778Z,20.08
2022-09-09T05:27:20.359Z,20.06
2022-09-09T05:29:49.810Z,20.09
2022-09-09T05:32:18.047Z,20.09
2022-09-09T05:34:50.787Z,20.07
2022-09-09T05:37:19.264Z,20.01
2022-09-09T05:39:47.153Z,19.97
2022-09-09T05:42:15.207Z,19.95
2022-09-09T05:44:43.455Z,19.94
2022-09-09T05:47:11.446Z,19.97
2022-09-09T05:49:39.383Z,19.86
2022-09-09T05:52:08.574Z,19.87
2022-09-09T05:54:36.384Z,19.84
2022-09-09T05:57:04.540Z,19.90
2022-09-09T05:59:33.182Z,19.96
2022-09-09T06:02:02.225Z,19.94
2022-09-09T06:04:35.823Z,19.93
2022-09-09T06:07:04.747Z,19.83
2022-09-09T06:09:34.064Z,19.74
2022-09-09T06:12:01.818Z,19.84
2022-09-09T06:14:33.183Z,19.89
2022-09-09T06:17:02.467Z,19.82
2022-09-09T06:19:31.848Z,19.87
2022-09-09T06:22:00.988Z,19.96
2022-09-09T06:24:31.231Z,20.03
2022-09-09T06:27:01.316Z,20.08
2022-09-09T06:29:33.315Z,20.02
2022-09-09T06:32:03.453Z,20.04
2022-09-09T06:34:32.134Z,20.00
2022-09-09T06:37:01.187Z,19.97
2022-09-09T06:39:36.113Z,19.98
2022-09-09T06:42:05.823Z,19.98
2022-09-09T06:44:54.324Z,19.95
2022-09-09T06:47:31.050Z,19.94
2022-09-09T06:49:59.864Z,20.01
2022-09-09T06:52:27.669Z,19.98
2022-09-09T06:54:59.346Z,20.08
2022-09-09T06:57:44.166Z,20.12
2022-09-09T07:00:17.916Z,20.08
2022-09-09T07:02:46.227Z,20.11
2022-09-09T07:05:16.347Z,20.21
2022-09-09T07:07:45.456Z,20.16
2022-09-09T07:10:15.472Z,20.25
2022-09-09T07:12:44.867Z,20.30
2022-09-09T07:15:15.007Z,20.30
2022-09-09T07:17:47.520Z,20.33
2022-09-09T07:20:16.559Z,20.38
2022-09-09T07:22:47.995Z,20.41
2022-09-09T07:25:19.099Z,20.50
2022-09-09T07:27:52.477Z,20.35
2022-09-09T07:30:24.335Z,20.39
2022-09-09T07:32:58.100Z,20.34
2022-09-09T07:35:27.230Z,20.45
2022-09-09T07:37:54.998Z,20.53
2022-09-09T07:40:23.161Z,20.51
2022-09-09T07:42:56.161Z,20.45
2022-09-09T07:45:23.918Z,20.47
2022-09-09T07:47:52.198Z,20.33
2022-09-09T07:50:20.198Z,20.43
2022-09-09T07:52:52.988Z,20.50
2022-09-09T07:55:22.744Z,20.48
2022-09-09T07:57:50.698Z,20.60
2022-09-09T08:00:24.670Z,20.64
2022-09-09T08:03:04.199Z,20.68
2022-09-09T08:05:32.337Z,20.70
2022-09-09T08:08:01.375Z,20.71
2022-09-09T08:10:29.313Z,20.69
2022-09-09T08:13:16.950Z,20.68
2022-09-09T08:15:46.702Z,20.69
2022-09-09T08:18:15.095Z,20.65
2022-09-09T08:20:43.426Z,20.78
2022-09-09T08:23:11.513Z,20.78
2022-09-09T08:25:39.707Z,20.79
2022-09-09T08:28:11.702Z,20.55
2022-09-09T08:30:40.627Z,20.62
2022-09-09T08:33:11.276Z,20.66
2022-09-09T08:35:39.474Z,20.80
2022-09-09T08:38:10.825Z,20.84
2022-09-09T08:40:46.848Z,20.89
2022-09-09T08:43:18.558Z,20.99
2022-09-09T08:45:57.555Z,21.00
2022-09-09T08:48:43.196Z,21.06
2022-09-09T08:51:12.264Z,21.00
2022-09-09T08:53:44.567Z,21.03
2022-09-09T08:56:16.287Z,20.96
2022-09-09T08:58:50.874Z,20.99
2022-09-09T09:01:42.762Z,21.03
2022-09-09T09:04:29.853Z,20.97
2022-09-09T09:07:10.675Z,20.92
2022-09-09T09:09:48.729Z,20.96
2022-09-09T09:12:20.011Z,20.97
2022-09-09T09:14:49.534Z,21.01
2022-09-09T09:17:21.086Z,21.18
2022-09-09T09:19:51.890Z,21.21
2022-09-09T09:22:23.190Z,21.18
2022-09-09T09:24:57.056Z,21.10
2022-09-09T09:27:33.669Z,21.03
2022-09-09T09:30:23.814Z,20.88
2022-09-09T09:32:56.274Z,20.95
2022-09-09T09:35:28.821Z,20.96
2022-09-09T09:40:56.849Z,21.06
2022-09-09T09:43:28.733Z,21.12
2022-09-09T09:46:17.980Z,21.12
2022-09-09T09:48:58.344Z,21.07
2022-09-09T09:51:33.383Z,21.03
2022-09-09T09:54:17.200Z,21.10
2022-09-09T09:56:49.636Z,21.08
2022-09-09T09:59:41.445Z,21.11
2022-09-09T10:02:41.694Z,21.21
2022-09-09T10:05:17.202Z,21.37
2022-09-09T10:08:03.267Z,21.52
2022-09-09T10:10:47.448Z,21.55
2022-09-09T10:13:24.880Z,21.64
2022-09-09T10:16:05.607Z,21.63
2022-09-09T10:18:45.310Z,21.54
2022-09-09T10:21:31.061Z,21.75
2022-09-09T10:24:24.507Z,21.72
2022-09-09T10:27:01.042Z,21.71
2022-09-09T10:29:53.384Z,21.83
2022-09-09T10:32:39.184Z,21.80
2022-09-09T10:35:14.168Z,21.87
2022-09-09T10:38:16.366Z,22.01
2022-09-09T10:41:01.626Z,21.90
2022-09-09T10:43:46.220Z,21.81
2022-09-09T10:46:25.189Z,21.88
2022-09-09T10:49:06.089Z,21.91
2022-09-09T10:51:43.342Z,21.87
2022-09-09T10:54:34.740Z,21.89
2022-09-09T10:57:13.095Z,21.97
2022-09-09T10:59:45.190Z,21.82
2022-09-09T11:02:20.341Z,22.12
2022-09-09T11:04:55.283Z,22.21
2022-09-09T11:07:30.779Z,22.24
2022-09-09T11:10:04.105Z,22.26
2022-09-09T11:12:38.154Z,22.59
2022-09-09T11:15:12.008Z,22.42
2022-09-09T11:17:47.774Z,22.18
2022-09-09T11:20:16.240Z,22.29
2022-09-09T11:22:52.659Z,22.29
2022-09-09T11:25:25.724Z,22.16
2022-09-09T11:28:16.421Z,22.03
2022-09-09T11:30:57.655Z,22.01
2022-09-09T11:34:00.405Z,21.98
2022-09-09T11:36:45.224Z,21.95
2022-09-09T11:39:37.221Z,21.81
2022-09-09T11:42:18.600Z,21.71
2022-09-09T11:44:48.657Z,21.85
2022-09-09T11:47:27.931Z,21.90
2022-09-09T11:50:01.201Z,21.80
2022-09-09T11:52:43.215Z,22.00
2022-09-09T11:55:13.100Z,22.05
2022-09-09T11:57:43.108Z,21.87
2022-09-09T12:00:35.551Z,21.99
2022-09-09T12:03:06.104Z,22.00
2022-09-09T12:05:46.976Z,22.00
2022-09-09T12:08:21.825Z,22.00
2022-09-09T12:10:57.031Z,21.85
2022-09-09T12:13:32.516Z,21.98
2022-09-09T12:16:06.520Z,21.97
2022-09-09T12:18:40.383Z,21.84
2022-09-09T12:21:17.802Z,21.98
2022-09-09T12:23:54.224Z,21.93
2022-09-09T12:26:32.936Z,21.68
2022-09-09T12:29:10.778Z,21.82
2022-09-09T12:31:46.168Z,21.76
2022-09-09T12:34:18.933Z,21.90
2022-09-09T12:36:54.036Z,22.02
2022-09-09T12:39:33.459Z,22.00
2022-09-09T12:42:02.198Z,22.01
2022-09-09T12:44:30.123Z,22.03
2022-09-09T12:47:05.954Z,21.98
2022-09-09T12:49:37.466Z,21.91
2022-09-09T12:52:08.869Z,21.86
2022-09-09T12:54:38.941Z,21.63
2022-09-09T12:57:07.675Z,21.53
2022-09-09T12:59:41.246Z,21.27
2022-09-09T13:02:21.637Z,20.94
2022-09-09T13:04:51.397Z,20.83
2022-09-09T13:07:20.138Z,21.20
2022-09-09T13:09:49.827Z,21.56
2022-09-09T13:12:21.211Z,21.74
2022-09-09T13:14:51.825Z,21.87
2022-09-09T13:17:23.756Z,21.65
2022-09-09T13:19:53.790Z,21.76
2022-09-09T13:22:25.890Z,21.58
2022-09-09T13:25:06.203Z,21.45
2022-09-09T13:27:35.790Z,21.39
2022-09-09T13:30:03.722Z,21.32
2022-09-09T13:32:32.952Z,21.25
2022-09-09T13:35:03.642Z,21.20
2022-09-09T13:37:38.047Z,21.18
2022-09-09T13:40:08.062Z,21.18
2022-09-09T13:42:43.519Z,21.18
2022-09-09T13:45:21.461Z,21.25
2022-09-09T13:47:53.595Z,21.25
2022-09-09T13:50:22.428Z,21.19
2022-09-09T13:52:51.045Z,21.18
2022-09-09T13:55:18.895Z,21.09
2022-09-09T13:57:53.540Z,21.06
2022-09-09T14:00:21.740Z,21.06
2022-09-09T14:02:51.213Z,21.15
2022-09-09T14:05:19.789Z,21.13
2022-09-09T14:07:52.517Z,21.12
2022-09-09T14:10:21.870Z,21.15
2022-09-09T14:12:49.785Z,21.12
2022-09-09T14:15:17.820Z,21.14
2022-09-09T14:17:45.532Z,21.09
2022-09-09T14:20:16.273Z,21.08
2022-09-09T14:22:44.878Z,20.95
2022-09-09T14:25:14.533Z,20.77
2022-09-09T14:27:43.248Z,20.07
2022-09-09T14:30:12.177Z,19.45
2022-09-09T14:32:39.996Z,19.20
2022-09-09T14:35:08.390Z,19.25
2022-09-09T14:37:37.437Z,19.29
2022-09-09T14:40:05.937Z,19.26
2022-09-09T14:42:33.732Z,19.31
2022-09-09T14:45:01.513Z,19.26
2022-09-09T14:47:30.167Z,19.36
2022-09-09T14:49:57.895Z,19.33
2022-09-09T14:52:26.589Z,19.29
2022-09-09T14:54:55.679Z,19.35
2022-09-09T14:57:23.641Z,19.37
2022-09-09T14:59:51.394Z,19.40
2022-09-09T15:02:19.120Z,19.50
2022-09-09T15:04:46.854Z,19.57
2022-09-09T15:07:14.564Z,19.66
2022-09-09T15:09:42.285Z,19.66
2022-09-09T15:12:11.470Z,19.73
2022-09-09T15:14:39.425Z,19.65
2022-09-09T15:17:07.170Z,19.61
2022-09-09T15:19:34.898Z,19.80
2022-09-09T15:22:02.607Z,19.80
2022-09-09T15:24:30.312Z,19.96
2022-09-09T15:26:58.575Z,19.97
2022-09-09T15:29:27.696Z,19.95
2022-09-09T15:31:55.545Z,19.92
2022-09-09T15:34:23.261Z,19.96
2022-09-09T15:36:51.105Z,19.87
2022-09-09T15:39:19.759Z,19.74
2022-09-09T15:41:49.122Z,19.79
2022-09-09T15:44:17.714Z,19.81
2022-09-09T15:46:48.332Z,19.84
2022-09-09T15:49:18.384Z,19.78
2022-09-09T15:51:47.731Z,19.85
2022-09-09T15:54:18.879Z,19.83
2022-09-09T15:56:47.407Z,19.90
2022-09-09T15:59:15.720Z,19.97
2022-09-09T16:01:44.974Z,19.91
2022-09-09T16:04:14.369Z,19.93
2022-09-09T16:06:42.139Z,19.99
2022-09-09T16:09:11.108Z,20.00
2022-09-09T16:11:40.169Z,20.12
2022-09-09T16:14:08.513Z,20.04
2022-09-09T16:16:37.338Z,20.11
2022-09-09T16:19:08.212Z,20.08
2022-09-09T16:21:40.820Z,20.05
2022-09-09T16:24:10.580Z,19.94
2022-09-09T16:26:40.439Z,19.83
2022-09-09T16:29:09.710Z,19.74
2022-09-09T16:31:37.969Z,19.73
2022-09-09T16:34:06.372Z,19.72
2022-09-09T16:36:36.071Z,19.60
2022-09-09T16:39:07.283Z,19.60
2022-09-09T16:41:35.716Z,19.59
2022-09-09T16:44:05.387Z,19.76
2022-09-09T16:46:36.291Z,19.58
2022-09-09T16:49:06.022Z,19.63
2022-09-09T16:51:36.280Z,19.74
2022-09-09T16:54:08.192Z,19.63
2022-09-09T16:56:38.800Z,19.77
2022-09-09T16:59:08.654Z,19.82
2022-09-09T17:01:38.818Z,19.67
2022-09-09T17:04:08.952Z,19.76
2022-09-09T17:06:38.401Z,19.83
2022-09-09T17:09:09.164Z,19.82
2022-09-09T17:11:38.126Z,19.85
2022-09-09T17:14:06.947Z,19.85
2022-09-09T17:16:36.050Z,19.79
2022-09-09T17:19:05.878Z,19.84
2022-09-09T17:21:34.968Z,19.92
2022-09-09T17:24:03.093Z,19.87
2022-09-09T17:26:35.247Z,19.92
2022-09-09T17:29:04.391Z,19.88
2022-09-09T17:31:33.610Z,19.87
2022-09-09T17:34:02.310Z,19.72
2022-09-09T17:36:32.275Z,19.80
2022-09-09T17:39:01.230Z,19.72
2022-09-09T17:41:30.688Z,19.76
2022-09-09T17:44:00.037Z,19.73
2022-09-09T17:46:29.758Z,19.83
2022-09-09T17:48:59.696Z,19.73
2022-09-09T17:51:30.540Z,19.76
2022-09-09T17:54:00.772Z,19.82
2022-09-09T17:56:31.538Z,19.80
2022-09-09T17:59:01.990Z,19.81
2022-09-09T18:01:32.145Z,19.79
2022-09-09T18:04:02.081Z,19.77
2022-09-09T18:06:33.785Z,19.73
2022-09-09T18:09:03.951Z,19.69
2022-09-09T18:11:36.454Z,19.68
2022-09-09T18:14:06.487Z,19.71
2022-09-09T18:16:36.002Z,19.65
2022-09-09T18:19:05.011Z,19.75
2022-09-09T18:21:34.366Z,19.65
2022-09-09T18:24:03.232Z,19.67
2022-09-09T18:26:33.604Z,19.66
2022-09-09T18:29:03.682Z,19.60
2022-09-09T18:31:32.937Z,19.67
2022-09-09T18:34:03.880Z,19.57
2022-09-09T18:36:34.050Z,19.60
2022-09-09T18:39:03.780Z,19.53
2022-09-09T18:41:34.067Z,19.54
2022-09-09T18:44:04.692Z,19.46
2022-09-09T18:49:46.439Z,19.48
2022-09-09T18:52:15.058Z,19.49
2022-09-09T18:54:45.901Z,19.26
2022-09-09T18:57:13.699Z,19.38
2022-09-09T18:59:41.444Z,19.40
2022-09-09T19:02:11.509Z,19.30
2022-09-09T19:04:39.767Z,19.40
2022-09-09T19:07:08.777Z,19.40
2022-09-09T19:09:36.491Z,19.41
2022-09-09T19:12:06.167Z,19.36
2022-09-09T19:14:34.138Z,19.39
2022-09-09T19:17:02.067Z,19.32
2022-09-09T19:19:31.841Z,19.39
2022-09-09T19:22:00.433Z,19.32
2022-09-09T19:24:31.361Z,19.34
2022-09-09T19:27:02.660Z,19.33
2022-09-09T19:29:33.017Z,19.28
2022-09-09T19:32:42.226Z,19.21
2022-09-09T19:34:50.373Z,19.24
2022-09-09T19:37:18.852Z,19.28
2022-09-09T19:39:49.377Z,19.27
2022-09-09T19:42:17.217Z,19.29
2022-09-09T19:44:45.064Z,19.30
2022-09-09T19:47:14.817Z,19.29
2022-09-09T19:49:46.765Z,19.29
2022-09-09T19:52:15.810Z,19.28
2022-09-09T19:54:43.960Z,19.18
2022-09-09T19:57:13.043Z,19.27
2022-09-09T19:59:40.748Z,19.21
2022-09-09T20:02:08.545Z,19.00
2022-09-09T20:04:36.749Z,19.14
2022-09-09T20:07:04.536Z,19.13
2022-09-09T20:09:32.239Z,19.19
2022-09-09T20:12:00.721Z,19.07
2022-09-09T20:14:29.823Z,19.21
2022-09-09T20:16:57.800Z,19.18
2022-09-09T20:19:25.525Z,19.16
2022-09-09T20:21:53.250Z,19.19
2022-09-09T20:24:23.088Z,19.25
2022-09-09T20:26:51.100Z,19.23
2022-09-09T20:29:20.684Z,19.08
2022-09-09T20:31:50.126Z,19.14
2022-09-09T20:34:21.430Z,19.21
2022-09-09T20:36:50.850Z,19.24
2022-09-09T20:39:20.812Z,19.25
2022-09-09T20:41:49.912Z,19.24
2022-09-09T20:44:19.190Z,19.25
2022-09-09T20:46:49.978Z,19.20
2022-09-09T20:49:19.331Z,19.13
2022-09-09T20:51:49.647Z,19.22
2022-09-09T20:54:19.881Z,19.21
2022-09-09T20:56:48.131Z,19.17
2022-09-09T20:59:18.275Z,19.22
2022-09-09T21:01:47.776Z,19.22
2022-09-09T21:04:19.639Z,19.16
2022-09-09T21:06:49.077Z,19.07
2022-09-09T21:09:17.651Z,19.01
2022-09-09T21:11:45.299Z,19.19
2022-09-09T21:14:12.967Z,19.21
2022-09-09T21:16:40.668Z,19.05
2022-09-09T21:19:08.930Z,19.21
2022-09-09T21:21:38.319Z,19.21
2022-09-09T21:24:06.938Z,19.16
2022-09-09T21:26:35.484Z,19.22
2022-09-09T21:29:03.177Z,19.18
2022-09-09T21:31:31.453Z,19.16
2022-09-09T21:33:59.731Z,19.15
2022-09-09T21:36:28.094Z,19.15
2022-09-09T21:38:59.132Z,19.12
2022-09-09T21:41:27.091Z,19.06
2022-09-09T21:43:55.552Z,19.05
2022-09-09T21:46:26.496Z,19.05
2022-09-09T21:48:56.339Z,19.08
2022-09-09T21:51:24.054Z,19.16
2022-09-09T21:53:51.876Z,19.12
2022-09-09T21:56:21.042Z,19.16
2022-09-09T21:58:48.737Z,19.14
2022-09-09T22:01:18.661Z,19.15
2022-09-09T22:03:47.385Z,19.05
2022-09-09T22:06:17.225Z,19.18
2022-09-09T22:08:45.503Z,19.17
2022-09-09T22:11:15.324Z,19.22
2022-09-09T22:13:45.935Z,19.22
2022-09-09T22:16:15.575Z,19.25
2022-09-09T22:18:43.595Z,19.22
2022-09-09T22:21:12.929Z,19.20
2022-09-09T22:23:40.919Z,19.19
2022-09-09T22:26:09.331Z,19.20
2022-09-09T22:28:38.427Z,19.18
2022-09-09T22:31:07.737Z,19.16
2022-09-09T22:33:35.936Z,19.15
2022-09-09T22:36:04.792Z,19.10
2022-09-09T22:38:36.492Z,19.11
2022-09-09T22:41:05.203Z,19.09
2022-09-09T22:43:33.945Z,19.13
2022-09-09T22:46:02.337Z,19.09
2022-09-09T22:48:34.557Z,19.09
2022-09-09T22:51:04.211Z,19.06
2022-09-09T22:53:33.043Z,19.03
2022-09-09T22:56:02.135Z,19.02
2022-09-09T22:58:32.396Z,19.05
2022-09-09T23:01:01.011Z,19.05
2022-09-09T23:03:29.151Z,19.03
2022-09-09T23:05:59.827Z,19.05
2022-09-09T23:08:32.259Z,19.07
2022-09-09T23:11:00.938Z,19.08
2022-09-09T23:13:33.093Z,19.01
2022-09-09T23:16:03.887Z,19.05
2022-09-09T23:18:33.509Z,19.06
2022-09-09T23:21:03.413Z,19.00
2022-09-09T23:23:31.180Z,19.00
2022-09-09T23:26:03.108Z,19.06
2022-09-09T23:28:32.005Z,19.00
2022-09-09T23:30:59.891Z,19.01
2022-09-09T23:33:27.666Z,18.96
2022-09-09T23:36:04.958Z,18.94
2022-09-09T23:38:32.688Z,18.84
2022-09-09T23:41:02.411Z,18.81
2022-09-09T23:43:30.179Z,18.82
2022-09-09T23:45:58.241Z,18.80
2022-09-09T23:48:27.156Z,18.87
2022-09-09T23:50:55.104Z,18.88
2022-09-09T23:53:24.639Z,18.91
2022-09-09T23:55:52.348Z,18.96
2022-09-09T23:58:20.973Z,18.97
